createdAt,value
2023-05-14T00:00:16.925Z,7.93
2023-05-14T00:02:44.252Z,8.30
2023-05-14T00:05:11.727Z,7.03
2023-05-14T00:07:39.164Z,6.45
2023-05-14T00:10:07.302Z,7.05
2023-05-14T00:12:34.652Z,6.65
2023-05-14T00:15:02.223Z,5.38
2023-05-14T00:17:29.669Z,5.22
2023-05-14T00:19:57.072Z,6.00
2023-05-14T00:22:24.374Z,5.97
2023-05-14T00:24:51.608Z,6.43
2023-05-14T00:27:18.874Z,7.30
2023-05-14T00:29:46.227Z,7.70
2023-05-14T00:32:13.497Z,6.20
2023-05-14T00:34:40.821Z,5.63
2023-05-14T00:37:08.061Z,6.43
2023-05-14T00:39:35.344Z,5.88
2023-05-14T00:42:02.745Z,4.55
2023-05-14T00:44:29.977Z,4.90
2023-05-14T00:46:57.161Z,4.72
2023-05-14T00:49:24.826Z,4.82
2023-05-14T00:51:52.851Z,4.82
2023-05-14T00:54:20.864Z,4.60
2023-05-14T00:56:48.704Z,4.05
2023-05-14T00:59:15.947Z,4.20
2023-05-14T01:01:43.360Z,4.22
2023-05-14T01:04:12.067Z,4.32
2023-05-14T01:06:52.533Z,4.35
2023-05-14T01:09:24.917Z,4.43
2023-05-14T01:12:29.116Z,4.22
2023-05-14T01:15:09.732Z,4.95
2023-05-14T01:17:43.715Z,4.75
2023-05-14T01:20:12.204Z,4.43
2023-05-14T01:22:39.448Z,5.32
2023-05-14T01:25:07.685Z,6.10
2023-05-14T01:27:53.447Z,6.45
2023-05-14T01:30:51.420Z,4.95
2023-05-14T01:33:21.569Z,4.28
2023-05-14T01:35:50.265Z,4.90
2023-05-14T01:38:19.622Z,4.55
2023-05-14T01:40:48.630Z,4.35
2023-05-14T01:43:16.733Z,4.50
2023-05-14T01:45:44.499Z,4.60
2023-05-14T01:48:12.326Z,4.05
2023-05-14T01:50:40.025Z,4.38
2023-05-14T01:53:07.263Z,5.13
2023-05-14T01:55:34.556Z,5.07
2023-05-14T01:58:01.684Z,4.10
2023-05-14T02:00:29.059Z,3.83
2023-05-14T02:02:56.488Z,3.83
2023-05-14T02:05:23.864Z,3.67
2023-05-14T02:07:50.685Z,4.22
2023-05-14T02:10:18.036Z,3.92
2023-05-14T02:12:45.207Z,4.75
2023-05-14T02:15:12.917Z,4.82
2023-05-14T02:17:40.339Z,4.78
2023-05-14T02:20:08.247Z,4.93
2023-05-14T02:22:35.458Z,4.07
2023-05-14T02:25:02.679Z,4.50
2023-05-14T02:27:30.034Z,4.45
2023-05-14T02:30:01.154Z,3.70
2023-05-14T02:32:28.997Z,4.78
2023-05-14T02:34:56.358Z,4.68
2023-05-14T02:37:23.605Z,4.43
2023-05-14T02:39:50.817Z,4.15
2023-05-14T02:42:17.987Z,3.92
2023-05-14T02:44:45.259Z,4.28
2023-05-14T02:47:12.511Z,4.80
2023-05-14T02:49:40.879Z,5.10
2023-05-14T02:52:08.156Z,5.53
2023-05-14T02:54:35.622Z,5.50
2023-05-14T02:57:02.980Z,5.00
2023-05-14T02:59:30.686Z,5.45
2023-05-14T03:01:58.493Z,6.55
2023-05-14T03:04:26.393Z,6.60
2023-05-14T03:06:53.800Z,5.63
2023-05-14T03:09:21.352Z,6.70
2023-05-14T03:11:48.770Z,6.30
2023-05-14T03:14:16.019Z,6.50
2023-05-14T03:16:43.415Z,7.25
2023-05-14T03:19:10.830Z,7.32
2023-05-14T03:21:38.149Z,7.88
2023-05-14T03:24:05.542Z,6.43
2023-05-14T03:26:32.932Z,6.53
2023-05-14T03:29:00.160Z,7.13
2023-05-14T03:31:27.569Z,7.75
2023-05-14T03:33:54.779Z,6.68
2023-05-14T03:36:22.461Z,6.70
2023-05-14T03:38:49.645Z,6.63
2023-05-14T03:41:18.377Z,6.20
2023-05-14T03:43:45.565Z,6.10
2023-05-14T03:46:12.955Z,6.25
2023-05-14T03:48:40.356Z,6.50
2023-05-14T03:51:07.570Z,6.43
2023-05-14T03:53:34.858Z,6.45
2023-05-14T03:56:02.063Z,5.45
2023-05-14T03:58:29.357Z,6.10
2023-05-14T04:00:56.729Z,6.00
2023-05-14T04:03:24.081Z,6.18
2023-05-14T04:05:51.325Z,6.25
2023-05-14T04:08:18.530Z,6.55
2023-05-14T04:10:45.766Z,6.85
2023-05-14T04:13:13.368Z,6.82
2023-05-14T04:15:40.754Z,6.35
2023-05-14T04:18:08.133Z,6.38
2023-05-14T04:20:35.758Z,6.00
2023-05-14T04:23:03.381Z,5.95
2023-05-14T04:25:31.291Z,5.90
2023-05-14T04:27:59.126Z,5.55
2023-05-14T04:30:26.795Z,6.63
2023-05-14T04:32:53.999Z,5.45
2023-05-14T04:35:24.710Z,5.70
2023-05-14T04:37:52.457Z,5.53
2023-05-14T04:40:19.494Z,5.05
2023-05-14T04:42:46.710Z,5.38
2023-05-14T04:45:13.840Z,5.15
2023-05-14T04:47:44.169Z,5.85
2023-05-14T04:50:11.655Z,5.90
2023-05-14T04:52:39.449Z,5.85
2023-05-14T04:55:07.292Z,5.90
2023-05-14T04:57:34.889Z,5.88
2023-05-14T05:00:02.377Z,5.63
2023-05-14T05:02:29.675Z,6.00
2023-05-14T05:04:56.893Z,5.25
2023-05-14T05:07:24.181Z,5.35
2023-05-14T05:09:51.717Z,5.75
2023-05-14T05:12:18.876Z,5.85
2023-05-14T05:14:46.265Z,4.70
2023-05-14T05:17:13.517Z,5.25
2023-05-14T05:19:44.330Z,4.78
2023-05-14T05:22:12.085Z,4.82
2023-05-14T05:24:39.369Z,4.70
2023-05-14T05:27:06.625Z,4.68
2023-05-14T05:29:34.151Z,3.88
2023-05-14T05:32:01.818Z,4.00
2023-05-14T05:34:29.115Z,3.90
2023-05-14T05:36:56.600Z,3.78
2023-05-14T05:39:23.892Z,3.97
2023-05-14T05:41:51.592Z,4.20
2023-05-14T05:44:18.941Z,4.50
2023-05-14T05:46:46.318Z,5.25
2023-05-14T05:49:13.682Z,4.75
2023-05-14T05:51:40.846Z,4.10
2023-05-14T05:54:08.114Z,3.92
2023-05-14T05:56:35.464Z,4.43
2023-05-14T05:59:03.264Z,3.47
2023-05-14T06:01:30.512Z,2.22
2023-05-14T06:03:58.077Z,1.90
2023-05-14T06:06:25.384Z,2.47
2023-05-14T06:08:52.502Z,1.95
2023-05-14T06:11:19.758Z,1.80
2023-05-14T06:13:47.061Z,1.95
2023-05-14T06:16:14.515Z,2.00
2023-05-14T06:18:41.722Z,2.03
2023-05-14T06:21:09.222Z,2.25
2023-05-14T06:23:36.517Z,2.00
2023-05-14T06:26:04.023Z,1.90
2023-05-14T06:28:34.390Z,2.08
2023-05-14T06:31:01.132Z,1.95
2023-05-14T06:33:31.717Z,1.77
2023-05-14T06:36:05.565Z,1.85
2023-05-14T06:38:33.320Z,2.22
2023-05-14T06:41:00.747Z,2.30
2023-05-14T06:43:28.202Z,2.50
2023-05-14T06:45:55.634Z,2.50
2023-05-14T06:48:23.231Z,2.58
2023-05-14T06:50:50.835Z,2.72
2023-05-14T06:53:18.102Z,4.32
2023-05-14T06:55:48.923Z,2.60
2023-05-14T06:58:16.315Z,2.78
2023-05-14T07:00:44.166Z,3.08
2023-05-14T07:03:11.674Z,2.47
2023-05-14T07:05:41.232Z,2.63
2023-05-14T07:08:08.657Z,2.55
2023-05-14T07:10:36.066Z,2.25
2023-05-14T07:13:04.037Z,2.20
2023-05-14T07:15:31.846Z,2.15
2023-05-14T07:17:59.405Z,2.20
2023-05-14T07:20:27.101Z,2.53
2023-05-14T07:22:54.604Z,2.45
2023-05-14T07:25:22.313Z,4.10
2023-05-14T07:27:49.805Z,2.20
2023-05-14T07:30:17.208Z,2.33
2023-05-14T07:32:44.508Z,2.10
2023-05-14T07:35:12.487Z,2.10
2023-05-14T07:37:39.715Z,2.00
2023-05-14T07:40:07.598Z,2.20
2023-05-14T07:42:36.914Z,2.00
2023-05-14T07:45:05.630Z,1.80
2023-05-14T07:47:33.181Z,2.28
2023-05-14T07:50:00.741Z,2.20
2023-05-14T07:52:27.931Z,2.38
2023-05-14T07:54:55.181Z,2.10
2023-05-14T07:57:22.882Z,1.73
2023-05-14T07:59:50.849Z,2.03
2023-05-14T08:02:18.214Z,2.22
2023-05-14T08:04:46.366Z,2.10
2023-05-14T08:07:13.418Z,2.10
2023-05-14T08:09:42.277Z,1.70
2023-05-14T08:12:09.991Z,1.60
2023-05-14T08:14:37.567Z,1.73
2023-05-14T08:17:05.663Z,1.70
2023-05-14T08:19:33.733Z,1.52
2023-05-14T08:22:01.075Z,1.70
2023-05-14T08:24:28.022Z,1.55
2023-05-14T08:26:55.457Z,1.50
2023-05-14T08:29:22.943Z,1.90
2023-05-14T08:31:51.601Z,1.30
2023-05-14T08:34:19.181Z,2.33
2023-05-14T08:36:46.664Z,1.50
2023-05-14T08:39:13.936Z,1.88
2023-05-14T08:41:40.937Z,1.55
2023-05-14T08:44:14.444Z,1.25
2023-05-14T08:46:42.207Z,1.13
2023-05-14T08:49:34.288Z,1.13
2023-05-14T08:52:01.371Z,1.30
2023-05-14T08:54:29.264Z,1.33
2023-05-14T08:56:56.315Z,1.40
2023-05-14T08:59:23.203Z,1.30
2023-05-14T09:01:53.982Z,1.25
2023-05-14T09:04:23.369Z,1.30
2023-05-14T09:06:52.994Z,1.30
2023-05-14T09:09:22.748Z,1.88
2023-05-14T09:11:51.566Z,1.40
2023-05-14T09:14:19.984Z,1.42
2023-05-14T09:16:49.209Z,1.58
2023-05-14T09:19:19.719Z,1.35
2023-05-14T09:21:49.554Z,1.35
2023-05-14T09:24:22.107Z,1.48
2023-05-14T09:26:58.547Z,1.60
2023-05-14T09:29:30.036Z,1.40
2023-05-14T09:31:58.915Z,1.85
2023-05-14T09:34:28.248Z,1.65
2023-05-14T09:37:03.239Z,1.70
2023-05-14T09:39:31.446Z,1.20
2023-05-14T09:41:58.921Z,1.10
2023-05-14T09:44:26.791Z,1.73
2023-05-14T09:46:55.002Z,1.27
2023-05-14T09:49:23.195Z,1.65
2023-05-14T09:51:51.291Z,1.40
2023-05-14T09:54:18.848Z,1.38
2023-05-14T09:56:46.271Z,1.55
2023-05-14T09:59:13.630Z,1.55
2023-05-14T10:01:43.324Z,1.48
2023-05-14T10:04:12.195Z,1.50
2023-05-14T10:06:42.516Z,1.10
2023-05-14T10:09:15.187Z,1.00
2023-05-14T10:11:50.558Z,1.30
2023-05-14T10:14:50.187Z,1.77
2023-05-14T10:17:20.286Z,1.02
2023-05-14T10:19:52.956Z,1.42
2023-05-14T10:22:24.942Z,1.40
2023-05-14T10:24:55.547Z,1.58
2023-05-14T10:27:23.889Z,1.63
2023-05-14T10:29:55.097Z,1.30
2023-05-14T10:32:26.092Z,1.13
2023-05-14T10:34:54.352Z,1.40
2023-05-14T10:37:23.854Z,1.30
2023-05-14T10:39:52.283Z,1.40
2023-05-14T10:42:22.509Z,1.65
2023-05-14T10:45:03.633Z,1.45
2023-05-14T10:47:32.545Z,1.40
2023-05-14T10:50:02.637Z,1.67
2023-05-14T10:52:30.759Z,1.60
2023-05-14T10:55:03.212Z,1.30
2023-05-14T10:57:32.548Z,2.40
2023-05-14T11:00:03.288Z,1.80
2023-05-14T11:02:41.773Z,1.50
2023-05-14T11:05:16.204Z,1.60
2023-05-14T11:07:56.211Z,1.55
2023-05-14T11:10:30.638Z,1.70
2023-05-14T11:12:59.796Z,1.63
2023-05-14T11:15:28.765Z,2.50
2023-05-14T11:17:56.232Z,1.85
2023-05-14T11:20:24.153Z,1.40
2023-05-14T11:22:54.230Z,1.80
2023-05-14T11:25:21.975Z,1.55
2023-05-14T11:27:50.845Z,1.77
2023-05-14T11:30:20.418Z,1.70
2023-05-14T11:32:49.639Z,2.30
2023-05-14T11:35:17.985Z,1.90
2023-05-14T11:37:52.390Z,2.35
2023-05-14T11:40:20.141Z,1.88
2023-05-14T11:42:47.545Z,2.00
2023-05-14T11:45:24.927Z,2.28
2023-05-14T11:47:54.758Z,2.20
2023-05-14T11:50:23.625Z,2.03
2023-05-14T11:52:51.849Z,2.72
2023-05-14T11:55:19.373Z,1.92
2023-05-14T11:57:46.628Z,2.22
2023-05-14T12:00:14.961Z,2.38
2023-05-14T12:02:42.362Z,1.88
2023-05-14T12:05:13.137Z,2.15
2023-05-14T12:07:41.139Z,2.42
2023-05-14T12:10:09.074Z,2.40
2023-05-14T12:12:40.646Z,2.30
2023-05-14T12:15:15.416Z,2.70
2023-05-14T12:17:42.806Z,2.10
2023-05-14T12:20:11.483Z,2.17
2023-05-14T12:22:39.686Z,2.38
2023-05-14T12:25:13.844Z,2.30
2023-05-14T12:27:42.079Z,2.30
2023-05-14T12:32:43.046Z,2.30
2023-05-14T12:35:10.971Z,2.45
2023-05-14T12:37:40.405Z,2.25
2023-05-14T12:40:11.040Z,1.90
2023-05-14T12:42:38.433Z,2.30
2023-05-14T12:45:08.458Z,1.92
2023-05-14T12:47:37.452Z,1.88
2023-05-14T12:50:06.489Z,1.70
2023-05-14T12:52:38.472Z,2.10
2023-05-14T12:55:10.667Z,2.42
2023-05-14T12:57:39.509Z,2.13
2023-05-14T13:00:14.321Z,2.00
2023-05-14T13:02:44.338Z,2.28
2023-05-14T13:05:12.366Z,1.80
2023-05-14T13:07:39.329Z,2.03
2023-05-14T13:10:07.020Z,2.25
2023-05-14T13:12:35.000Z,2.42
2023-05-14T13:15:02.581Z,1.92
2023-05-14T13:17:30.166Z,2.10
2023-05-14T13:19:57.433Z,1.65
2023-05-14T13:22:24.964Z,1.98
2023-05-14T13:24:52.440Z,1.60
2023-05-14T13:27:19.609Z,1.65
2023-05-14T13:29:46.874Z,1.92
2023-05-14T13:32:14.260Z,1.70
2023-05-14T13:34:41.533Z,1.80
2023-05-14T13:37:09.036Z,1.70
2023-05-14T13:39:36.251Z,1.50
2023-05-14T13:42:04.024Z,1.40
2023-05-14T13:44:31.347Z,1.52
2023-05-14T13:46:58.524Z,1.30
2023-05-14T13:49:26.072Z,1.42
2023-05-14T13:51:53.233Z,1.98
2023-05-14T13:54:20.488Z,1.50
2023-05-14T13:56:47.651Z,1.70
2023-05-14T13:59:15.663Z,1.60
2023-05-14T14:01:45.834Z,1.48
2023-05-14T14:04:16.555Z,1.65
2023-05-14T14:06:43.843Z,1.40
2023-05-14T14:09:11.061Z,1.42
2023-05-14T14:11:38.396Z,1.92
2023-05-14T14:14:05.030Z,1.40
2023-05-14T14:16:32.359Z,1.25
2023-05-14T14:18:59.881Z,1.45
2023-05-14T14:21:27.203Z,1.20
2023-05-14T14:23:54.728Z,1.55
2023-05-14T14:26:22.392Z,1.50
2023-05-14T14:28:49.649Z,1.30
2023-05-14T14:31:17.768Z,1.58
2023-05-14T14:33:45.148Z,1.20
2023-05-14T14:36:11.961Z,1.45
2023-05-14T14:38:41.966Z,1.30
2023-05-14T14:41:11.005Z,1.30
2023-05-14T14:43:40.740Z,1.25
2023-05-14T14:46:11.181Z,1.40
2023-05-14T14:48:38.946Z,1.50
2023-05-14T14:51:08.542Z,1.65
2023-05-14T14:53:37.413Z,1.15
2023-05-14T14:56:05.351Z,1.40
2023-05-14T14:58:33.114Z,2.78
2023-05-14T15:01:01.724Z,1.50
2023-05-14T15:03:29.545Z,1.30
2023-05-14T15:05:56.957Z,1.33
2023-05-14T15:08:28.574Z,1.58
2023-05-14T15:10:56.905Z,2.10
2023-05-14T15:13:24.917Z,2.10
2023-05-14T15:15:53.137Z,1.52
2023-05-14T15:18:20.648Z,2.03
2023-05-14T15:20:48.086Z,1.80
2023-05-14T15:23:15.426Z,1.85
2023-05-14T15:25:43.142Z,1.80
2023-05-14T15:28:10.657Z,2.10
2023-05-14T15:30:38.585Z,1.75
2023-05-14T15:33:08.518Z,1.75
2023-05-14T15:35:36.993Z,1.65
2023-05-14T15:38:04.471Z,1.70
2023-05-14T15:40:32.008Z,1.50
2023-05-14T15:42:59.200Z,1.30
2023-05-14T15:45:26.404Z,8.23
2023-05-14T15:47:53.784Z,1.50
2023-05-14T15:50:22.385Z,2.03
2023-05-14T15:52:49.928Z,1.13
2023-05-14T15:55:17.212Z,1.23
2023-05-14T15:57:44.621Z,14.13
2023-05-14T16:00:12.346Z,13.07
2023-05-14T16:02:40.509Z,3.25
2023-05-14T16:05:09.171Z,2.05
2023-05-14T16:07:36.870Z,2.25
2023-05-14T16:10:04.720Z,1.90
2023-05-14T16:12:32.159Z,1.95
2023-05-14T16:15:00.540Z,1.60
2023-05-14T16:17:29.232Z,4.43
2023-05-14T16:19:56.757Z,3.25
2023-05-14T16:22:24.029Z,9.15
2023-05-14T16:24:51.462Z,5.10
2023-05-14T16:27:21.222Z,4.05
2023-05-14T16:29:48.425Z,6.63
2023-05-14T16:32:16.153Z,3.50
2023-05-14T16:34:50.057Z,2.85
2023-05-14T16:37:19.391Z,2.20
2023-05-14T16:39:46.684Z,2.13
2023-05-14T16:42:13.962Z,1.83
2023-05-14T16:44:41.217Z,2.15
2023-05-14T16:47:08.324Z,1.95
2023-05-14T16:49:36.449Z,2.10
2023-05-14T16:52:03.754Z,2.20
2023-05-14T16:54:31.077Z,1.98
2023-05-14T16:56:58.333Z,7.15
2023-05-14T16:59:25.812Z,3.90
2023-05-14T17:01:53.378Z,3.53
2023-05-14T17:04:21.678Z,2.88
2023-05-14T17:06:48.700Z,4.00
2023-05-14T17:09:15.930Z,3.20
2023-05-14T17:11:43.279Z,3.20
2023-05-14T17:14:10.440Z,4.30
2023-05-14T17:16:39.243Z,3.08
2023-05-14T17:19:06.801Z,18.83
2023-05-14T17:21:34.291Z,3.72
2023-05-14T17:24:01.446Z,16.33
2023-05-14T17:26:28.823Z,3.33
2023-05-14T17:28:56.148Z,2.72
2023-05-14T17:31:23.706Z,2.40
2023-05-14T17:33:50.900Z,2.67
2023-05-14T17:36:17.700Z,1.92
2023-05-14T17:38:44.969Z,2.42
2023-05-14T17:41:12.268Z,2.15
2023-05-14T17:43:39.038Z,2.40
2023-05-14T17:46:07.266Z,3.40
2023-05-14T17:48:34.603Z,2.33
2023-05-14T17:51:01.904Z,2.83
2023-05-14T17:53:29.351Z,2.70
2023-05-14T17:55:56.710Z,2.40
2023-05-14T17:58:24.001Z,17.63
2023-05-14T18:00:51.366Z,33.38
2023-05-14T18:03:20.834Z,8.40
2023-05-14T18:05:48.236Z,3.10
2023-05-14T18:08:15.658Z,2.55
2023-05-14T18:10:42.859Z,3.50
2023-05-14T18:13:10.303Z,3.28
2023-05-14T18:15:37.627Z,2.80
2023-05-14T18:18:05.145Z,3.10
2023-05-14T18:20:33.540Z,4.05
2023-05-14T18:23:02.963Z,4.07
2023-05-14T18:25:30.358Z,3.30
2023-05-14T18:27:57.613Z,2.83
2023-05-14T18:30:24.361Z,3.20
2023-05-14T18:32:51.667Z,3.60
2023-05-14T18:35:18.962Z,2.50
2023-05-14T18:37:46.499Z,3.05
2023-05-14T18:40:17.743Z,2.60
2023-05-14T18:42:46.066Z,2.35
2023-05-14T18:45:13.299Z,2.50
2023-05-14T18:47:41.108Z,2.90
2023-05-14T18:50:09.168Z,2.13
2023-05-14T18:52:36.443Z,2.53
2023-05-14T18:55:03.701Z,2.20
2023-05-14T18:57:32.668Z,3.53
2023-05-14T19:00:04.331Z,2.42
2023-05-14T19:02:31.696Z,3.13
2023-05-14T19:04:58.943Z,2.63
2023-05-14T19:07:27.851Z,2.75
2023-05-14T19:09:55.006Z,3.20
2023-05-14T19:12:22.186Z,2.83
2023-05-14T19:14:49.435Z,2.92
2023-05-14T19:17:18.464Z,2.42
2023-05-14T19:19:47.202Z,3.03
2023-05-14T19:22:14.427Z,2.47
2023-05-14T19:24:41.964Z,3.17
2023-05-14T19:27:09.620Z,3.17
2023-05-14T19:29:39.691Z,3.55
2023-05-14T19:32:07.766Z,5.18
2023-05-14T19:34:34.675Z,4.95
2023-05-14T19:37:02.270Z,4.53
2023-05-14T19:39:29.645Z,3.38
2023-05-14T19:41:56.871Z,2.67
2023-05-14T19:44:24.354Z,2.75
2023-05-14T19:46:51.768Z,2.85
2023-05-14T19:49:19.102Z,3.63
2023-05-14T19:51:46.414Z,3.00
2023-05-14T19:54:13.888Z,3.40
2023-05-14T19:56:41.186Z,3.05
2023-05-14T19:59:08.557Z,2.92
2023-05-14T20:01:35.933Z,3.25
2023-05-14T20:04:03.117Z,3.05
2023-05-14T20:06:30.281Z,2.95
2023-05-14T20:08:57.546Z,3.22
2023-05-14T20:11:24.906Z,3.58
2023-05-14T20:13:52.127Z,3.67
2023-05-14T20:16:19.010Z,3.08
2023-05-14T20:18:46.617Z,3.60
2023-05-14T20:21:13.477Z,4.75
2023-05-14T20:23:40.756Z,4.18
2023-05-14T20:26:08.128Z,3.70
2023-05-14T20:28:34.999Z,3.60
2023-05-14T20:31:04.448Z,4.18
2023-05-14T20:33:31.849Z,3.50
2023-05-14T20:35:59.278Z,3.90
2023-05-14T20:38:29.586Z,3.92
2023-05-14T20:40:56.904Z,3.80
2023-05-14T20:43:24.252Z,3.50
2023-05-14T20:45:51.466Z,4.22
2023-05-14T20:48:20.598Z,4.03
2023-05-14T20:50:47.892Z,4.20
2023-05-14T20:53:16.105Z,4.05
2023-05-14T20:55:45.321Z,4.90
2023-05-14T20:58:12.100Z,8.02
2023-05-14T21:00:39.493Z,4.75
2023-05-14T21:03:07.190Z,4.60
2023-05-14T21:05:34.177Z,3.88
2023-05-14T21:08:00.983Z,4.20
2023-05-14T21:10:27.747Z,4.00
2023-05-14T21:12:55.748Z,4.25
2023-05-14T21:15:23.646Z,4.07
2023-05-14T21:17:51.690Z,3.75
2023-05-14T21:20:19.262Z,4.05
2023-05-14T21:22:46.641Z,4.60
2023-05-14T21:25:14.278Z,4.65
2023-05-14T21:27:41.275Z,4.05
2023-05-14T21:30:08.918Z,3.47
2023-05-14T21:32:36.351Z,2.80
2023-05-14T21:35:03.834Z,2.85
2023-05-14T21:37:31.072Z,3.75
2023-05-14T21:39:58.264Z,2.53
2023-05-14T21:42:25.059Z,2.75
2023-05-14T21:44:53.005Z,3.03
2023-05-14T21:47:21.762Z,3.85
2023-05-14T21:49:49.137Z,4.00
2023-05-14T21:52:16.808Z,6.28
2023-05-14T21:54:43.636Z,3.00
2023-05-14T21:57:10.888Z,2.38
2023-05-14T21:59:38.375Z,3.25
2023-05-14T22:02:07.701Z,2.85
2023-05-14T22:04:35.704Z,4.90
2023-05-14T22:07:03.128Z,3.92
2023-05-14T22:09:30.872Z,3.10
2023-05-14T22:11:58.839Z,3.67
2023-05-14T22:14:27.690Z,2.38
2023-05-14T22:16:55.190Z,2.80
2023-05-14T22:19:23.155Z,2.65
2023-05-14T22:21:50.466Z,3.45
2023-05-14T22:24:17.701Z,2.33
2023-05-14T22:26:44.789Z,2.70
2023-05-14T22:29:11.848Z,3.42
2023-05-14T22:31:39.089Z,3.13
2023-05-14T22:34:06.382Z,2.38
2023-05-14T22:36:34.130Z,3.00
2023-05-14T22:39:01.441Z,2.75
2023-05-14T22:41:28.603Z,2.70
2023-05-14T22:43:55.952Z,2.80
2023-05-14T22:46:23.201Z,2.67
2023-05-14T22:48:50.642Z,2.40
2023-05-14T22:51:18.449Z,2.75
2023-05-14T22:53:46.173Z,2.80
2023-05-14T22:56:13.667Z,3.42
2023-05-14T22:58:40.959Z,3.30
2023-05-14T23:01:07.795Z,2.92
2023-05-14T23:03:35.252Z,3.25
2023-05-14T23:06:03.200Z,3.05
2023-05-14T23:08:30.681Z,2.78
2023-05-14T23:10:57.971Z,2.80
2023-05-14T23:13:25.213Z,3.08
2023-05-14T23:15:52.711Z,3.53
2023-05-14T23:18:20.316Z,3.58
2023-05-14T23:20:47.954Z,3.90
2023-05-14T23:23:15.131Z,4.07
2023-05-14T23:25:42.413Z,2.95
2023-05-14T23:28:10.155Z,2.78
2023-05-14T23:30:37.542Z,2.92
2023-05-14T23:33:05.036Z,3.00
2023-05-14T23:35:32.392Z,2.90
2023-05-14T23:37:59.831Z,3.33
2023-05-14T23:40:26.646Z,3.15
2023-05-14T23:42:53.936Z,3.25
2023-05-14T23:45:21.053Z,3.03
2023-05-14T23:47:48.495Z,3.92
2023-05-14T23:50:15.812Z,3.25
2023-05-14T23:52:43.126Z,3.05
2023-05-14T23:55:10.451Z,2.63
2023-05-14T23:57:37.908Z,3.22
